createdAt,value
2016-11-29T00:00:35.609Z,-4.83
2016-11-29T00:01:35.268Z,-4.89
2016-11-29T00:02:35.257Z,-4.93
2016-11-29T00:03:35.233Z,-5.02
2016-11-29T00:04:35.217Z,-5.02
2016-11-29T00:05:35.200Z,-5.02
2016-11-29T00:06:35.180Z,-4.94
2016-11-29T00:07:35.151Z,-5.07
2016-11-29T00:08:35.135Z,-4.94
2016-11-29T00:09:35.115Z,-4.93
2016-11-29T00:10:35.093Z,-4.89
2016-11-29T00:11:35.077Z,-4.69
2016-11-29T00:12:35.065Z,-4.76
2016-11-29T00:13:35.043Z,-4.65
2016-11-29T00:14:35.026Z,-4.72
2016-11-29T00:15:35.008Z,-4.62
2016-11-29T00:16:34.990Z,-4.75
2016-11-29T00:17:34.969Z,-4.62
2016-11-29T00:18:34.944Z,-4.61
2016-11-29T00:19:34.923Z,-4.62
2016-11-29T00:20:34.903Z,-4.69
2016-11-29T00:21:34.915Z,-4.62
2016-11-29T00:22:34.866Z,-4.62
2016-11-29T00:23:34.847Z,-4.57
2016-11-29T00:24:34.830Z,-4.55
2016-11-29T00:25:34.809Z,-4.57
2016-11-29T00:26:34.796Z,-4.51
2016-11-29T00:27:34.772Z,-4.62
2016-11-29T00:28:34.748Z,-4.53
2016-11-29T00:29:34.730Z,-4.55
2016-11-29T00:30:34.746Z,-4.68
2016-11-29T00:31:34.699Z,-4.63
2016-11-29T00:32:34.673Z,-4.57
2016-11-29T00:33:34.659Z,-4.73
2016-11-29T00:34:34.635Z,-4.75
2016-11-29T00:35:34.616Z,-4.73
2016-11-29T00:36:34.598Z,-4.72
2016-11-29T00:37:34.578Z,-4.87
2016-11-29T00:38:34.559Z,-4.86
2016-11-29T00:39:34.544Z,-4.86
2016-11-29T00:40:34.521Z,-4.86
2016-11-29T00:41:34.505Z,-4.9
2016-11-29T00:42:34.486Z,-4.87
2016-11-29T00:43:34.466Z,-4.87
2016-11-29T00:44:34.445Z,-4.87
2016-11-29T00:45:34.429Z,-4.86
2016-11-29T00:46:34.411Z,-4.89
2016-11-29T00:47:34.394Z,-4.87
2016-11-29T00:48:34.369Z,-4.83
2016-11-29T00:49:34.353Z,-4.87
2016-11-29T00:50:34.330Z,-4.9
2016-11-29T00:51:34.311Z,-4.84
2016-11-29T00:52:34.294Z,-4.84
2016-11-29T00:53:34.274Z,-4.82
2016-11-29T00:54:34.254Z,-4.87
2016-11-29T00:55:34.235Z,-4.83
2016-11-29T00:56:34.219Z,-4.86
2016-11-29T00:57:34.198Z,-4.83
2016-11-29T00:58:34.180Z,-4.86
2016-11-29T00:59:34.160Z,-4.86
2016-11-29T01:00:34.142Z,-4.86
2016-11-29T01:01:34.122Z,-4.86
2016-11-29T01:02:34.104Z,-4.84
2016-11-29T01:03:34.081Z,-4.89
2016-11-29T01:04:34.067Z,-4.98
2016-11-29T01:05:34.043Z,-4.92
2016-11-29T01:06:34.353Z,-4.93
2016-11-29T01:07:34.007Z,-5
2016-11-29T01:08:33.986Z,-4.94
2016-11-29T01:09:33.967Z,-5.05
2016-11-29T01:10:33.948Z,-5.01
2016-11-29T01:11:33.935Z,-5.04
2016-11-29T01:12:33.908Z,-5.1
2016-11-29T01:13:33.891Z,-5.1
2016-11-29T01:14:33.871Z,-5.08
2016-11-29T01:15:33.851Z,-5.1
2016-11-29T01:16:33.828Z,-5.08
2016-11-29T01:17:33.816Z,-5.05
2016-11-29T01:18:33.799Z,-5.08
2016-11-29T01:19:33.774Z,-5.07
2016-11-29T01:20:33.758Z,-5.07
2016-11-29T01:21:33.746Z,-5.12
2016-11-29T01:22:34.032Z,-5.12
2016-11-29T01:23:33.729Z,-5.12
2016-11-29T01:24:33.678Z,-5.12
2016-11-29T01:25:33.661Z,-5.24
2016-11-29T01:26:33.637Z,-5.27
2016-11-29T01:27:33.620Z,-5.42
2016-11-29T01:28:33.604Z,-5.44
2016-11-29T01:29:33.585Z,-5.45
2016-11-29T01:30:33.565Z,-5.51
2016-11-29T01:31:33.542Z,-5.6
2016-11-29T01:32:33.529Z,-5.59
2016-11-29T01:33:33.506Z,-5.58
2016-11-29T01:34:33.515Z,-5.62
2016-11-29T01:35:33.464Z,-5.62
2016-11-29T01:36:33.450Z,-5.73
2016-11-29T01:37:33.428Z,-5.76
2016-11-29T01:38:33.410Z,-5.79
2016-11-29T01:39:33.389Z,-5.86
2016-11-29T01:40:33.369Z,-5.98
2016-11-29T01:41:33.350Z,-5.94
2016-11-29T01:42:33.328Z,-6.02
2016-11-29T01:43:33.321Z,-6.07
2016-11-29T01:44:33.294Z,-6.22
2016-11-29T01:45:33.276Z,-6.07
2016-11-29T01:46:33.576Z,-6.08
2016-11-29T01:47:33.230Z,-6.19
2016-11-29T01:48:33.212Z,-6.07
2016-11-29T01:49:33.197Z,-6.08
2016-11-29T01:50:33.175Z,-6.12
2016-11-29T01:51:33.155Z,-6.22
2016-11-29T01:52:33.138Z,-5.98
2016-11-29T01:53:33.117Z,-6.04
2016-11-29T01:54:33.098Z,-6.04
2016-11-29T01:55:33.398Z,-6.23
2016-11-29T01:56:33.072Z,-6.16
2016-11-29T01:57:33.035Z,-6.2
2016-11-29T01:58:33.019Z,-6.22
2016-11-29T01:59:33.000Z,-6.31
2016-11-29T02:00:32.979Z,-6.3
2016-11-29T02:01:32.967Z,-6.33
2016-11-29T02:02:32.940Z,-6.22
2016-11-29T02:03:32.924Z,-6.33
2016-11-29T02:04:32.901Z,-6.36
2016-11-29T02:05:33.324Z,-6.4
2016-11-29T02:06:32.860Z,-6.38
2016-11-29T02:07:32.842Z,-6.37
2016-11-29T02:08:32.821Z,-6.4
2016-11-29T02:09:32.801Z,-6.41
2016-11-29T02:10:32.781Z,-6.34
2016-11-29T02:11:32.765Z,-6.33
2016-11-29T02:12:32.748Z,-6.28
2016-11-29T02:13:32.727Z,-6.28
2016-11-29T02:14:32.702Z,-6.31
2016-11-29T02:15:32.682Z,-6.28
2016-11-29T02:16:32.665Z,-6.22
2016-11-29T02:17:32.647Z,-6.22
2016-11-29T02:18:32.622Z,-6.28
2016-11-29T02:19:32.605Z,-6.28
2016-11-29T02:20:32.585Z,-6.38
2016-11-29T02:21:32.563Z,-6.33
2016-11-29T02:22:32.546Z,-6.31
2016-11-29T02:23:32.525Z,-6.34
2016-11-29T02:24:32.502Z,-6.37
2016-11-29T02:25:32.488Z,-6.4
2016-11-29T02:26:32.463Z,-6.36
2016-11-29T02:27:32.444Z,-6.38
2016-11-29T02:28:32.425Z,-6.37
2016-11-29T02:29:32.404Z,-6.49
2016-11-29T02:30:32.389Z,-6.36
2016-11-29T02:31:32.395Z,-6.37
2016-11-29T02:32:32.340Z,-6.38
2016-11-29T02:33:32.322Z,-6.38
2016-11-29T02:34:32.306Z,-6.38
2016-11-29T02:35:32.286Z,-6.37
2016-11-29T02:36:32.263Z,-6.33
2016-11-29T02:37:32.255Z,-6.36
2016-11-29T02:38:32.223Z,-6.37
2016-11-29T02:39:32.205Z,-6.36
2016-11-29T02:40:32.188Z,-6.41
2016-11-29T02:41:32.164Z,-6.4
2016-11-29T02:42:32.144Z,-6.4
2016-11-29T02:43:32.128Z,-6.4
2016-11-29T02:44:32.104Z,-6.4
2016-11-29T02:45:32.085Z,-6.46
2016-11-29T02:46:32.065Z,-6.48
2016-11-29T02:47:32.047Z,-6.63
2016-11-29T02:48:32.023Z,-6.59
2016-11-29T02:49:32.003Z,-6.65
2016-11-29T02:50:31.991Z,-6.6
2016-11-29T02:51:31.966Z,-6.58
2016-11-29T02:52:31.943Z,-6.6
2016-11-29T02:53:31.927Z,-6.6
2016-11-29T02:54:31.904Z,-6.58
2016-11-29T02:55:31.883Z,-6.55
2016-11-29T02:56:31.862Z,-6.48
2016-11-29T02:57:31.844Z,-6.48
2016-11-29T02:58:31.822Z,-6.49
2016-11-29T02:59:31.802Z,-6.46
2016-11-29T03:00:31.785Z,-6.59
2016-11-29T03:01:31.792Z,-6.38
2016-11-29T03:02:31.736Z,-6.44
2016-11-29T03:03:31.722Z,-6.6
2016-11-29T03:04:31.716Z,-6.58
2016-11-29T03:05:31.685Z,-6.63
2016-11-29T03:06:31.661Z,-6.65
2016-11-29T03:07:31.647Z,-6.71
2016-11-29T03:08:31.624Z,-6.68
2016-11-29T03:09:31.600Z,-6.68
2016-11-29T03:10:31.582Z,-6.68
2016-11-29T03:11:31.564Z,-6.63
2016-11-29T03:12:31.545Z,-6.74
2016-11-29T03:13:31.527Z,-6.73
2016-11-29T03:14:31.501Z,-6.74
2016-11-29T03:15:31.481Z,-6.68
2016-11-29T03:16:31.459Z,-6.73
2016-11-29T03:17:31.439Z,-6.73
2016-11-29T03:18:31.427Z,-6.65
2016-11-29T03:19:31.399Z,-6.71
2016-11-29T03:20:31.381Z,-6.73
2016-11-29T03:21:31.357Z,-6.76
2016-11-29T03:22:31.365Z,-6.87
2016-11-29T03:23:31.320Z,-6.84
2016-11-29T03:24:31.300Z,-6.92
2016-11-29T03:25:31.280Z,-6.92
2016-11-29T03:26:31.265Z,-6.97
2016-11-29T03:27:31.245Z,-6.89
2016-11-29T03:28:31.219Z,-6.88
2016-11-29T03:29:31.203Z,-6.94
2016-11-29T03:30:31.180Z,-6.95
2016-11-29T03:31:31.168Z,-6.89
2016-11-29T03:32:31.144Z,-6.91
2016-11-29T03:33:31.120Z,-6.94
2016-11-29T03:34:31.098Z,-6.88
2016-11-29T03:35:31.076Z,-6.89
2016-11-29T03:36:31.060Z,-6.91
2016-11-29T03:37:31.039Z,-6.89
2016-11-29T03:38:31.023Z,-6.95
2016-11-29T03:39:30.997Z,-6.94
2016-11-29T03:40:31.005Z,-6.84
2016-11-29T03:41:30.959Z,-6.78
2016-11-29T03:42:30.941Z,-6.83
2016-11-29T03:43:30.916Z,-6.98
2016-11-29T03:44:30.895Z,-6.92
2016-11-29T03:45:30.875Z,-6.89
2016-11-29T03:46:31.177Z,-6.94
2016-11-29T03:47:30.837Z,-7.01
2016-11-29T03:48:30.817Z,-6.92
2016-11-29T03:49:30.796Z,-6.97
2016-11-29T03:50:30.772Z,-6.94
2016-11-29T03:51:30.761Z,-6.98
2016-11-29T03:52:31.052Z,-7.01
2016-11-29T03:53:30.713Z,-7.09
2016-11-29T03:54:30.694Z,-7.1
2016-11-29T03:55:30.680Z,-7.2
2016-11-29T03:56:30.654Z,-7.13
2016-11-29T03:57:30.635Z,-7.16
2016-11-29T03:58:30.615Z,-7.24
2016-11-29T03:59:30.592Z,-7.31
2016-11-29T04:00:30.633Z,-7.27
2016-11-29T04:01:30.554Z,-7.31
2016-11-29T04:02:30.535Z,-7.3
2016-11-29T04:03:30.517Z,-7.31
2016-11-29T04:04:30.492Z,-7.3
2016-11-29T04:05:30.472Z,-7.24
2016-11-29T04:06:30.464Z,-7.26
2016-11-29T04:07:30.429Z,-7.19
2016-11-29T04:08:30.728Z,-7.19
2016-11-29T04:09:30.393Z,-7.12
2016-11-29T04:10:30.373Z,-7.12
2016-11-29T04:11:30.352Z,-7.1
2016-11-29T04:12:30.333Z,-7.07
2016-11-29T04:13:30.311Z,-7.15
2016-11-29T04:14:30.288Z,-7.16
2016-11-29T04:15:30.270Z,-7.15
2016-11-29T04:16:30.250Z,-7.24
2016-11-29T04:17:30.236Z,-7.16
2016-11-29T04:18:30.210Z,-7.34
2016-11-29T04:19:30.190Z,-7.27
2016-11-29T04:20:30.170Z,-7.36
2016-11-29T04:21:30.150Z,-7.34
2016-11-29T04:22:30.127Z,-7.27
2016-11-29T04:23:30.111Z,-7.34
2016-11-29T04:24:30.091Z,-7.26
2016-11-29T04:25:30.069Z,-7.3
2016-11-29T04:26:30.056Z,-7.22
2016-11-29T04:27:30.028Z,-7.17
2016-11-29T04:28:30.008Z,-7.12
2016-11-29T04:29:29.987Z,-7.13
2016-11-29T04:30:29.969Z,-7.05
2016-11-29T04:31:29.947Z,-7.01
2016-11-29T04:32:29.923Z,-7.02
2016-11-29T04:33:29.907Z,-7.02
2016-11-29T04:34:29.886Z,-7.07
2016-11-29T04:35:29.865Z,-7.05
2016-11-29T04:36:29.845Z,-7.19
2016-11-29T04:37:29.824Z,-7.22
2016-11-29T04:38:29.804Z,-7.19
2016-11-29T04:39:29.785Z,-7.16
2016-11-29T04:40:29.765Z,-7.13
2016-11-29T04:41:29.779Z,-7.05
2016-11-29T04:42:29.723Z,-7.07
2016-11-29T04:43:29.702Z,-7.05
2016-11-29T04:44:29.683Z,-7.07
2016-11-29T04:45:29.663Z,-7.13
2016-11-29T04:46:29.645Z,-7.09
2016-11-29T04:47:29.622Z,-6.98
2016-11-29T04:48:29.600Z,-7.07
2016-11-29T04:49:29.580Z,-7.15
2016-11-29T04:50:29.565Z,-7.01
2016-11-29T04:51:29.538Z,-7.06
2016-11-29T04:52:29.520Z,-7.1
2016-11-29T04:53:29.497Z,-6.95
2016-11-29T04:54:29.483Z,-6.98
2016-11-29T04:55:29.458Z,-6.99
2016-11-29T04:56:29.438Z,-6.95
2016-11-29T04:57:29.418Z,-6.94
2016-11-29T04:58:29.401Z,-6.91
2016-11-29T04:59:29.382Z,-6.99
2016-11-29T05:00:29.360Z,-7.05
2016-11-29T05:01:29.351Z,-7.09
2016-11-29T05:02:29.317Z,-7.06
2016-11-29T05:03:29.613Z,-7.1
2016-11-29T05:04:29.277Z,-7.13
2016-11-29T05:05:29.259Z,-7.16
2016-11-29T05:06:29.551Z,-6.99
2016-11-29T05:07:29.217Z,-7.12
2016-11-29T05:08:29.195Z,-6.98
2016-11-29T05:09:29.177Z,-6.98
2016-11-29T05:10:29.159Z,-6.94
2016-11-29T05:11:29.136Z,-7.02
2016-11-29T05:12:29.116Z,-6.98
2016-11-29T05:13:29.095Z,-7.02
2016-11-29T05:14:29.076Z,-6.95
2016-11-29T05:15:29.054Z,-7.01
2016-11-29T05:16:29.034Z,-6.94
2016-11-29T05:17:29.014Z,-6.98
2016-11-29T05:18:28.992Z,-6.99
2016-11-29T05:19:29.285Z,-6.98
2016-11-29T05:20:28.958Z,-7.09
2016-11-29T05:21:28.935Z,-7.05
2016-11-29T05:22:28.915Z,-7.06
2016-11-29T05:23:28.891Z,-7.07
2016-11-29T05:24:28.871Z,-6.97
2016-11-29T05:25:28.861Z,-7.01
2016-11-29T05:26:28.839Z,-7.09
2016-11-29T05:27:28.810Z,-7.16
2016-11-29T05:28:28.792Z,-7.06
2016-11-29T05:29:28.772Z,-7.12
2016-11-29T05:30:28.754Z,-7.09
2016-11-29T05:31:28.728Z,-7.19
2016-11-29T05:32:28.717Z,-7.19
2016-11-29T05:33:28.693Z,-7.12
2016-11-29T05:34:28.669Z,-7.09
2016-11-29T05:35:28.647Z,-7.17
2016-11-29T05:36:28.638Z,-7.15
2016-11-29T05:37:28.612Z,-7.15
2016-11-29T05:38:28.589Z,-7.12
2016-11-29T05:39:28.572Z,-7.1
2016-11-29T05:40:28.548Z,-7.05
2016-11-29T05:41:28.528Z,-7.06
2016-11-29T05:42:28.825Z,-6.95
2016-11-29T05:43:28.494Z,-7.01
2016-11-29T05:44:28.465Z,-6.97
2016-11-29T05:45:28.447Z,-6.97
2016-11-29T05:46:28.738Z,-6.95
2016-11-29T05:47:28.408Z,-7.06
2016-11-29T05:48:28.386Z,-6.99
2016-11-29T05:49:28.415Z,-6.98
2016-11-29T05:50:28.350Z,-7.06
2016-11-29T05:51:28.322Z,-7.07
2016-11-29T05:52:28.306Z,-6.99
2016-11-29T05:53:28.283Z,-7.05
2016-11-29T05:54:28.264Z,-6.94
2016-11-29T05:55:28.282Z,-6.97
2016-11-29T05:56:28.225Z,-7.05
2016-11-29T05:57:28.203Z,-6.98
2016-11-29T05:58:28.184Z,-7.05
2016-11-29T05:59:28.160Z,-6.98
2016-11-29T06:00:28.145Z,-6.97
2016-11-29T06:01:28.122Z,-7.06
2016-11-29T06:02:28.103Z,-6.97
2016-11-29T06:03:28.083Z,-6.94
2016-11-29T06:04:28.057Z,-6.94
2016-11-29T06:05:28.038Z,-6.99
2016-11-29T06:06:28.019Z,-6.97
2016-11-29T06:07:28.005Z,-6.97
2016-11-29T06:08:27.982Z,-6.94
2016-11-29T06:09:27.959Z,-7.06
2016-11-29T06:10:27.938Z,-7.01
2016-11-29T06:11:27.919Z,-6.99
2016-11-29T06:12:27.916Z,-6.94
2016-11-29T06:13:27.880Z,-6.91
2016-11-29T06:14:27.866Z,-6.95
2016-11-29T06:15:27.848Z,-6.94
2016-11-29T06:16:27.815Z,-6.91
2016-11-29T06:17:27.796Z,-6.98
2016-11-29T06:18:27.774Z,-6.97
2016-11-29T06:19:27.753Z,-6.99
2016-11-29T06:20:27.739Z,-6.95
2016-11-29T06:21:27.713Z,-7.02
2016-11-29T06:22:27.695Z,-7.02
2016-11-29T06:23:27.671Z,-6.92
2016-11-29T06:24:27.656Z,-6.98
2016-11-29T06:25:27.635Z,-6.92
2016-11-29T06:26:27.616Z,-6.98
2016-11-29T06:27:27.591Z,-6.98
2016-11-29T06:28:27.577Z,-6.98
2016-11-29T06:29:27.551Z,-6.97
2016-11-29T06:30:27.544Z,-7.01
2016-11-29T06:31:27.827Z,-6.94
2016-11-29T06:32:27.496Z,-7.05
2016-11-29T06:33:27.471Z,-6.94
2016-11-29T06:34:27.453Z,-6.97
2016-11-29T06:35:27.432Z,-7.02
2016-11-29T06:36:27.410Z,-6.99
2016-11-29T06:37:27.390Z,-6.98
2016-11-29T06:38:27.369Z,-7.02
2016-11-29T06:39:27.358Z,-7.09
2016-11-29T06:40:27.333Z,-7.15
2016-11-29T06:41:27.309Z,-7.07
2016-11-29T06:42:27.290Z,-7.12
2016-11-29T06:43:27.270Z,-7.24
2016-11-29T06:44:27.246Z,-7.27
2016-11-29T06:45:27.227Z,-7.34
2016-11-29T06:46:27.209Z,-7.37
2016-11-29T06:47:27.188Z,-7.42
2016-11-29T06:48:27.166Z,-7.48
2016-11-29T06:49:27.148Z,-7.52
2016-11-29T06:50:27.128Z,-7.56
2016-11-29T06:51:27.105Z,-7.66
2016-11-29T06:52:27.083Z,-7.56
2016-11-29T06:53:27.376Z,-7.58
2016-11-29T06:54:27.044Z,-7.65
2016-11-29T06:55:27.027Z,-7.63
2016-11-29T06:56:27.003Z,-7.59
2016-11-29T06:57:26.985Z,-7.67
2016-11-29T06:58:26.962Z,-7.66
2016-11-29T06:59:26.940Z,-7.56
2016-11-29T07:00:26.921Z,-7.54
2016-11-29T07:01:26.940Z,-7.52
2016-11-29T07:02:26.879Z,-7.48
2016-11-29T07:03:26.861Z,-7.48
2016-11-29T07:04:26.845Z,-7.38
2016-11-29T07:05:26.826Z,-7.3
2016-11-29T07:06:26.796Z,-7.42
2016-11-29T07:07:26.777Z,-7.44
2016-11-29T07:08:26.759Z,-7.38
2016-11-29T07:09:26.739Z,-7.4
2016-11-29T07:10:26.716Z,-7.47
2016-11-29T07:11:26.703Z,-7.47
2016-11-29T07:12:26.676Z,-7.45
2016-11-29T07:13:26.656Z,-7.47
2016-11-29T07:14:26.633Z,-7.48
2016-11-29T07:15:26.615Z,-7.54
2016-11-29T07:16:26.621Z,-7.55
2016-11-29T07:17:26.578Z,-7.45
2016-11-29T07:18:26.554Z,-7.48
2016-11-29T07:19:26.536Z,-7.45
2016-11-29T07:20:26.513Z,-7.49
2016-11-29T07:21:26.494Z,-7.36
2016-11-29T07:22:26.480Z,-7.34
2016-11-29T07:23:26.455Z,-7.37
2016-11-29T07:24:26.432Z,-7.44
2016-11-29T07:25:26.412Z,-7.42
2016-11-29T07:26:26.427Z,-7.34
2016-11-29T07:27:26.370Z,-7.33
2016-11-29T07:28:26.352Z,-7.4
2016-11-29T07:29:26.328Z,-7.34
2016-11-29T07:30:26.310Z,-7.31
2016-11-29T07:31:26.289Z,-7.26
2016-11-29T07:32:26.267Z,-7.24
2016-11-29T07:33:26.247Z,-7.22
2016-11-29T07:34:26.228Z,-7.17
2016-11-29T07:35:26.207Z,-7.09
2016-11-29T07:36:26.190Z,-7.12
2016-11-29T07:37:26.169Z,-7.07
2016-11-29T07:38:26.145Z,-7.06
2016-11-29T07:39:26.123Z,-7.05
2016-11-29T07:40:26.106Z,-7.05
2016-11-29T07:41:26.084Z,-7.12
2016-11-29T07:42:26.064Z,-7.07
2016-11-29T07:43:26.041Z,-7.1
2016-11-29T07:44:26.025Z,-7.13
2016-11-29T07:45:26.003Z,-7.12
2016-11-29T07:46:25.986Z,-7.05
2016-11-29T07:47:25.964Z,-7.13
2016-11-29T07:48:25.949Z,-7.09
2016-11-29T07:49:25.918Z,-7.09
2016-11-29T07:50:25.919Z,-7.01
2016-11-29T07:51:25.888Z,-7.02
2016-11-29T07:52:25.866Z,-7.02
2016-11-29T07:53:25.846Z,-7.02
2016-11-29T07:54:25.838Z,-6.98
2016-11-29T07:55:25.801Z,-6.95
2016-11-29T07:56:25.782Z,-6.88
2016-11-29T07:57:25.771Z,-6.98
2016-11-29T07:58:25.770Z,-6.94
2016-11-29T07:59:25.718Z,-6.8
2016-11-29T08:00:25.701Z,-6.83
2016-11-29T08:01:25.683Z,-6.77
2016-11-29T08:02:25.657Z,-6.68
2016-11-29T08:03:25.637Z,-6.63
2016-11-29T08:04:25.622Z,-6.58
2016-11-29T08:05:25.600Z,-6.55
2016-11-29T08:06:25.576Z,-6.52
2016-11-29T08:07:25.556Z,-6.48
2016-11-29T08:08:25.536Z,-6.48
2016-11-29T08:09:25.524Z,-6.4
2016-11-29T08:10:25.497Z,-6.51
2016-11-29T08:11:25.479Z,-6.38
2016-11-29T08:12:25.455Z,-6.38
2016-11-29T08:13:25.435Z,-6.46
2016-11-29T08:14:25.415Z,-6.37
2016-11-29T08:15:25.397Z,-6.46
2016-11-29T08:16:25.380Z,-6.36
2016-11-29T08:17:25.354Z,-6.37
2016-11-29T08:18:25.335Z,-6.37
2016-11-29T08:19:25.313Z,-6.37
2016-11-29T08:20:25.300Z,-6.33
2016-11-29T08:21:25.276Z,-6.38
2016-11-29T08:22:25.254Z,-6.4
2016-11-29T08:23:25.233Z,-6.28
2016-11-29T08:24:25.213Z,-6.23
2016-11-29T08:25:25.196Z,-6.23
2016-11-29T08:26:25.177Z,-6.3
2016-11-29T08:27:25.167Z,-6.25
2016-11-29T08:28:25.139Z,-6.22
2016-11-29T08:29:25.113Z,-6.19
2016-11-29T08:30:25.096Z,-6.23
2016-11-29T08:31:25.077Z,-6.22
2016-11-29T08:32:25.055Z,-6.12
2016-11-29T08:33:25.033Z,-6.08
2016-11-29T08:34:25.069Z,-6.12
2016-11-29T08:35:24.995Z,-6.12
2016-11-29T08:36:24.976Z,-6.02
2016-11-29T08:37:24.961Z,-5.95
2016-11-29T08:38:24.948Z,-6.05
2016-11-29T08:39:24.913Z,-5.8
2016-11-29T08:40:24.897Z,-5.79
2016-11-29T08:41:24.879Z,-5.83
2016-11-29T08:42:25.182Z,-5.62
2016-11-29T08:43:24.839Z,-5.73
2016-11-29T08:44:24.823Z,-5.73
2016-11-29T08:45:24.796Z,-5.68
2016-11-29T08:46:24.773Z,-5.62
2016-11-29T08:47:24.763Z,-5.65
2016-11-29T08:48:24.737Z,-5.62
2016-11-29T08:49:24.721Z,-5.47
2016-11-29T08:50:24.697Z,-5.47
2016-11-29T08:51:24.676Z,-5.5
2016-11-29T08:52:24.660Z,-5.52
2016-11-29T08:53:24.638Z,-5.47
2016-11-29T08:54:24.620Z,-5.38
2016-11-29T08:55:24.601Z,-5.38
2016-11-29T08:56:24.580Z,-5.37
2016-11-29T08:57:24.562Z,-5.29
2016-11-29T08:58:24.572Z,-5.23
2016-11-29T08:59:24.524Z,-5.26
2016-11-29T09:00:24.501Z,-5.19
2016-11-29T09:01:24.484Z,-5.2
2016-11-29T09:02:24.467Z,-5.2
2016-11-29T09:03:24.443Z,-5.07
2016-11-29T09:04:24.424Z,-5.07
2016-11-29T09:05:24.413Z,-5.08
2016-11-29T09:06:24.385Z,-5.11
2016-11-29T09:07:24.365Z,-5.07
2016-11-29T09:08:24.345Z,-5.05
2016-11-29T09:09:24.367Z,-5.02
2016-11-29T09:10:24.356Z,-5.04
2016-11-29T09:11:24.330Z,-4.97
2016-11-29T09:12:24.313Z,-4.92
2016-11-29T09:13:24.290Z,-4.87
2016-11-29T09:14:24.277Z,-4.92
2016-11-29T09:15:24.255Z,-4.82
2016-11-29T09:16:24.235Z,-4.89
2016-11-29T09:17:24.217Z,-4.94
2016-11-29T09:18:24.197Z,-4.79
2016-11-29T09:19:24.172Z,-4.76
2016-11-29T09:20:24.479Z,-4.68
2016-11-29T09:21:24.140Z,-4.72
2016-11-29T09:22:24.119Z,-4.59
2016-11-29T09:23:24.096Z,-4.73
2016-11-29T09:24:24.080Z,-4.57
2016-11-29T09:25:24.062Z,-4.71
2016-11-29T09:26:24.045Z,-4.59
2016-11-29T09:27:24.022Z,-4.51
2016-11-29T09:28:24.003Z,-4.51
2016-11-29T09:29:23.983Z,-4.53
2016-11-29T09:30:23.963Z,-4.43
2016-11-29T09:31:23.952Z,-4.44
2016-11-29T09:32:23.924Z,-4.27
2016-11-29T09:33:23.915Z,-4.37
2016-11-29T09:34:23.887Z,-4.34
2016-11-29T09:35:23.869Z,-4.16
2016-11-29T09:36:23.847Z,-4.15
2016-11-29T09:37:23.831Z,-4.26
2016-11-29T09:38:23.816Z,-4.12
2016-11-29T09:39:23.796Z,-4.12
2016-11-29T09:40:23.774Z,-4.15
2016-11-29T09:41:23.760Z,-4.14
2016-11-29T09:42:23.741Z,-4.09
2016-11-29T09:43:23.726Z,-4.12
2016-11-29T09:44:23.708Z,-4.12
2016-11-29T09:45:23.683Z,-4.11
2016-11-29T09:46:23.665Z,-4.15
2016-11-29T09:47:23.643Z,-4.09
2016-11-29T09:48:23.631Z,-4.05
2016-11-29T09:49:23.602Z,-4.06
2016-11-29T09:50:23.621Z,-3.97
2016-11-29T09:51:23.588Z,-4.08
2016-11-29T09:52:23.559Z,-3.96
2016-11-29T09:53:23.543Z,-3.94
2016-11-29T09:54:23.512Z,-3.94
2016-11-29T09:55:23.492Z,-3.83
2016-11-29T09:56:23.471Z,-3.93
2016-11-29T09:57:23.456Z,-3.9
2016-11-29T09:58:23.436Z,-3.86
2016-11-29T09:59:23.416Z,-3.86
2016-11-29T10:00:23.431Z,-3.82
2016-11-29T10:01:23.379Z,-3.83
2016-11-29T10:02:23.363Z,-3.82
2016-11-29T10:03:23.343Z,-3.76
2016-11-29T10:04:23.347Z,-3.69
2016-11-29T10:05:23.303Z,-3.69
2016-11-29T10:06:23.289Z,-3.57
2016-11-29T10:07:23.269Z,-3.63
2016-11-29T10:08:23.250Z,-3.51
2016-11-29T10:09:23.229Z,-3.45
2016-11-29T10:10:23.214Z,-3.39
2016-11-29T10:11:23.196Z,-3.36
2016-11-29T10:12:23.177Z,-3.29
2016-11-29T10:13:23.153Z,-3.21
2016-11-29T10:14:23.141Z,-3.3
2016-11-29T10:15:23.118Z,-3.09
2016-11-29T10:16:23.099Z,-3.07
2016-11-29T10:17:23.079Z,-3.01
2016-11-29T10:18:23.069Z,-2.96
2016-11-29T10:19:23.049Z,-2.91
2016-11-29T10:20:23.026Z,-2.85
2016-11-29T10:21:23.008Z,-2.82
2016-11-29T10:22:22.988Z,-2.73
2016-11-29T10:23:22.972Z,-2.68
2016-11-29T10:24:22.953Z,-2.62
2016-11-29T10:25:22.936Z,-2.58
2016-11-29T10:26:22.922Z,-2.49
2016-11-29T10:27:22.908Z,-2.53
2016-11-29T10:28:22.884Z,-2.3
2016-11-29T10:29:22.920Z,-2.44
2016-11-29T10:30:22.843Z,-2.36
2016-11-29T10:31:22.826Z,-2.28
2016-11-29T10:32:22.807Z,-2.23
2016-11-29T10:33:22.790Z,-2.25
2016-11-29T10:34:22.773Z,-2.18
2016-11-29T10:35:22.758Z,-2.2
2016-11-29T10:36:22.735Z,-2.17
2016-11-29T10:37:22.720Z,-2.09
2016-11-29T10:38:22.734Z,-2.03
2016-11-29T10:39:22.678Z,-2.02
2016-11-29T10:40:22.674Z,-2.06
2016-11-29T10:41:22.645Z,-1.94
2016-11-29T10:42:22.626Z,-1.99
2016-11-29T10:43:22.607Z,-1.92
2016-11-29T10:44:22.594Z,-1.84
2016-11-29T10:45:22.572Z,-1.96
2016-11-29T10:46:22.555Z,-1.94
2016-11-29T10:47:22.541Z,-1.85
2016-11-29T10:48:22.523Z,-1.81
2016-11-29T10:49:22.503Z,-1.84
2016-11-29T10:50:22.487Z,-1.89
2016-11-29T10:51:22.466Z,-1.78
2016-11-29T10:52:22.771Z,-1.78
2016-11-29T10:53:22.430Z,-1.81
2016-11-29T10:54:22.411Z,-1.82
2016-11-29T10:55:22.396Z,-1.81
2016-11-29T10:56:22.380Z,-1.7
2016-11-29T10:57:22.359Z,-1.73
2016-11-29T10:58:22.343Z,-1.73
2016-11-29T10:59:22.322Z,-1.76
2016-11-29T11:00:22.406Z,-1.67
2016-11-29T11:01:22.289Z,-1.71
2016-11-29T11:02:22.274Z,-1.64
2016-11-29T11:03:22.251Z,-1.56
2016-11-29T11:04:22.238Z,-1.6
2016-11-29T11:05:22.215Z,-1.61
2016-11-29T11:06:22.210Z,-1.46
2016-11-29T11:07:22.185Z,-1.48
2016-11-29T11:08:22.480Z,-1.48
2016-11-29T11:09:22.145Z,-1.45
2016-11-29T11:10:22.133Z,-1.46
2016-11-29T11:11:22.109Z,-1.6
2016-11-29T11:12:22.093Z,-1.49
2016-11-29T11:13:22.079Z,-1.37
2016-11-29T11:14:22.057Z,-1.46
2016-11-29T11:15:22.039Z,-1.49
2016-11-29T11:16:22.024Z,-1.32
2016-11-29T11:17:22.005Z,-1.38
2016-11-29T11:18:21.993Z,-1.43
2016-11-29T11:19:21.967Z,-1.4
2016-11-29T11:20:21.953Z,-1.35
2016-11-29T11:21:21.935Z,-1.38
2016-11-29T11:22:21.914Z,-1.37
2016-11-29T11:23:21.897Z,-1.4
2016-11-29T11:24:21.883Z,-1.37
2016-11-29T11:25:21.866Z,-1.38
2016-11-29T11:26:21.853Z,-1.4
2016-11-29T11:27:21.827Z,-1.42
2016-11-29T11:28:21.811Z,-1.37
2016-11-29T11:29:21.799Z,-1.35
2016-11-29T11:30:21.778Z,-1.38
2016-11-29T11:31:21.780Z,-1.34
2016-11-29T11:32:21.742Z,-1.35
2016-11-29T11:33:21.722Z,-1.3
2016-11-29T11:34:21.706Z,-1.31
2016-11-29T11:35:21.691Z,-1.28
2016-11-29T11:36:21.671Z,-1.3
2016-11-29T11:37:21.658Z,-1.25
2016-11-29T11:38:21.637Z,-1.24
2016-11-29T11:39:21.622Z,-1.16
2016-11-29T11:40:21.604Z,-1.25
2016-11-29T11:41:21.587Z,-1.14
2016-11-29T11:42:21.566Z,-1.14
2016-11-29T11:43:21.553Z,-1.16
2016-11-29T11:44:21.547Z,-1.21
2016-11-29T11:45:21.530Z,-1.11
2016-11-29T11:46:21.500Z,-1.14
2016-11-29T11:47:21.484Z,-1.1
2016-11-29T11:48:21.463Z,-1.21
2016-11-29T11:49:21.446Z,-1.16
2016-11-29T11:50:21.430Z,-1.13
2016-11-29T11:51:21.408Z,-1.11
2016-11-29T11:52:21.393Z,-1.07
2016-11-29T11:53:21.376Z,-1.09
2016-11-29T11:54:21.374Z,-1.16
2016-11-29T11:55:21.359Z,-1.16
2016-11-29T11:56:21.323Z,-1.1
2016-11-29T11:57:21.304Z,-1.14
2016-11-29T11:58:21.288Z,-1.16
2016-11-29T11:59:21.269Z,-1.16
2016-11-29T12:00:21.254Z,-1.1
2016-11-29T12:01:21.238Z,-1.16
2016-11-29T12:02:21.220Z,-1.16
2016-11-29T12:03:21.201Z,-1.1
2016-11-29T12:04:21.183Z,-1.17
2016-11-29T12:05:21.165Z,-1.1
2016-11-29T12:06:21.148Z,-1.14
2016-11-29T12:07:21.131Z,-1.13
2016-11-29T12:08:21.122Z,-1.11
2016-11-29T12:09:21.094Z,-1.1
2016-11-29T12:10:21.076Z,-1.11
2016-11-29T12:11:21.065Z,-1.14
2016-11-29T12:12:21.043Z,-1.16
2016-11-29T12:13:21.024Z,-1.09
2016-11-29T12:14:21.011Z,-1.16
2016-11-29T12:15:20.993Z,-1.1
2016-11-29T12:16:20.974Z,-1.04
2016-11-29T12:17:20.957Z,-1.1
2016-11-29T12:18:20.953Z,-0.98
2016-11-29T12:19:20.922Z,-1.03
2016-11-29T12:20:20.905Z,-0.99
2016-11-29T12:21:20.889Z,-1.07
2016-11-29T12:22:20.872Z,-1.06
2016-11-29T12:23:20.854Z,-1.1
2016-11-29T12:24:20.857Z,-1.01
2016-11-29T12:25:20.819Z,-1.04
2016-11-29T12:26:20.804Z,-1.04
2016-11-29T12:27:20.783Z,-0.99
2016-11-29T12:28:20.767Z,-0.93
2016-11-29T12:29:20.748Z,-1.04
2016-11-29T12:30:20.729Z,-0.93
2016-11-29T12:31:21.035Z,-1.04
2016-11-29T12:32:20.700Z,-0.96
2016-11-29T12:33:20.675Z,-0.98
2016-11-29T12:34:20.662Z,-0.99
2016-11-29T12:35:20.700Z,-0.93
2016-11-29T12:36:20.632Z,-0.93
2016-11-29T12:37:20.610Z,-0.99
2016-11-29T12:38:20.591Z,-1.01
2016-11-29T12:39:20.574Z,-0.96
2016-11-29T12:40:20.556Z,-0.95
2016-11-29T12:41:20.589Z,-0.96
2016-11-29T12:42:20.519Z,-0.95
2016-11-29T12:43:20.504Z,-0.96
2016-11-29T12:44:20.810Z,-0.95
2016-11-29T12:45:20.472Z,-1.01
2016-11-29T12:46:20.454Z,-0.96
2016-11-29T12:47:20.438Z,-0.96
2016-11-29T12:48:20.433Z,-0.98
2016-11-29T12:49:20.399Z,-0.96
2016-11-29T12:50:20.384Z,-0.95
2016-11-29T12:51:20.362Z,-0.96
2016-11-29T12:52:20.347Z,-0.95
2016-11-29T12:53:20.337Z,-0.98
2016-11-29T12:54:20.312Z,-0.99